Alamillo, New Mexico
Current Conditions -  °F | °C
As of 3:55 PM on Saturday 20 Dec 2014 (Local Time) from KONM Reporting Station
Clear Clear  
Wind Chill: 49°   Ceiling: Unl
Heat Index: 49°   Visibility: 10mi
Dew Point: 24°   Wind: 3mph
Humidity: 38%   Direction: 140°SE
Pressure: 30.08"   Gusts: NA
Location:  34.262°N, 106.87°W
Report Text: KONM 202255Z AUTO 14003KT 10SM CLR 10/M04 A3008 RMK AO2 T00961043
Loading
Personal Weather Stations






























Interactive Weather Map New forecast layout! Learn more

10-Day Weather Forecast

Advertisements
Track Severe Weather on mobile